Time,TemperatureF,DewpointF,PressureIn,WindDirection,WindDirectionDegrees,WindSpeedMPH,WindSpeedGustMPH,Humidity,HourlyPrecipIn,Conditions,Clouds,dailyrainin,SoftwareType,DateUTC
2013-02-25 00:15:00,31.0,21.7,29.83,WSW,255,0.0,0.0,68,0.00,,,0.00,Wunderground v.1.12,2013-02-25 05:15:00,
2013-02-25 00:45:00,31.1,22.1,29.84,WSW,255,0.0,0.0,69,0.00,,,0.00,Wunderground v.1.12,2013-02-25 05:45:00,
2013-02-25 01:15:00,31.1,22.1,29.86,WSW,255,0.0,0.0,69,0.00,,,0.00,Wunderground v.1.12,2013-02-25 06:15:00,
2013-02-25 01:45:00,31.2,22.2,29.86,WSW,255,0.0,0.0,69,0.00,,,0.00,Wunderground v.1.12,2013-02-25 06:45:00,
2013-02-25 02:15:00,31.0,22.0,29.86,WSW,255,0.0,0.0,69,0.00,,,0.00,Wunderground v.1.12,2013-02-25 07:15:00,
2013-02-25 02:45:00,30.3,21.3,29.87,WSW,255,0.0,0.0,69,0.00,,,0.00,Wunderground v.1.12,2013-02-25 07:45:00,
2013-02-25 03:15:00,30.8,22.2,29.88,WSW,255,0.0,0.0,70,0.00,,,0.00,Wunderground v.1.12,2013-02-25 08:15:00,
2013-02-25 03:45:00,31.1,22.5,29.88,WSW,255,0.0,0.0,70,0.00,,,0.00,Wunderground v.1.12,2013-02-25 08:45:00,
2013-02-25 04:15:00,30.8,22.2,29.89,WSW,255,0.0,0.0,70,0.00,,,0.00,Wunderground v.1.12,2013-02-25 09:15:00,
2013-02-25 04:45:00,30.8,22.2,29.90,WSW,255,0.0,0.0,70,0.00,,,0.00,Wunderground v.1.12,2013-02-25 09:45:00,
2013-02-25 05:15:00,30.9,22.6,29.91,WSW,255,0.0,0.0,71,0.00,,,0.00,Wunderground v.1.12,2013-02-25 10:15:00,
2013-02-25 05:45:00,31.0,22.4,29.92,WSW,255,0.0,0.0,70,0.00,,,0.00,Wunderground v.1.12,2013-02-25 10:45:00,
2013-02-25 06:15:00,31.1,22.5,29.93,WSW,254,0.0,0.0,70,0.00,,,0.00,Wunderground v.1.12,2013-02-25 11:15:00,
2013-02-25 06:45:00,31.3,22.6,29.94,WSW,255,0.0,0.0,70,0.00,,,0.00,Wunderground v.1.12,2013-02-25 11:45:00,
2013-02-25 07:15:00,31.4,22.7,29.94,WSW,255,0.0,0.0,70,0.00,,,0.00,Wunderground v.1.12,2013-02-25 12:15:00,
2013-02-25 07:45:00,31.9,23.6,29.94,WSW,255,0.0,0.0,71,0.00,,,0.00,Wunderground v.1.12,2013-02-25 12:45:00,
2013-02-25 08:15:00,33.0,24.3,29.95,WSW,255,0.0,0.0,70,0.00,,,0.00,Wunderground v.1.12,2013-02-25 13:15:00,
2013-02-25 08:45:00,33.9,24.8,29.95,WSW,255,0.0,0.0,69,0.00,,,0.00,Wunderground v.1.12,2013-02-25 13:45:00,
2013-02-25 09:15:00,35.0,25.5,29.96,WSW,255,0.0,0.0,68,0.00,,,0.00,Wunderground v.1.12,2013-02-25 14:15:00,
2013-02-25 09:45:00,35.2,25.3,29.97,WSW,255,0.0,0.0,67,0.00,,,0.00,Wunderground v.1.12,2013-02-25 14:45:00,
2013-02-25 10:15:00,35.8,25.9,29.98,WSW,255,0.0,0.0,67,0.00,,,0.00,Wunderground v.1.12,2013-02-25 15:15:00,
2013-02-25 10:45:00,37.0,26.3,29.99,WSW,254,0.0,0.0,65,0.00,,,0.00,Wunderground v.1.12,2013-02-25 15:45:00,
2013-02-25 11:15:00,37.3,27.0,29.99,WSW,255,0.0,0.0,66,0.00,,,0.00,Wunderground v.1.12,2013-02-25 16:15:00,
2013-02-25 11:45:00,38.7,27.6,29.99,WSW,255,0.0,0.0,64,0.00,,,0.00,Wunderground v.1.12,2013-02-25 16:45:00,
2013-02-25 12:15:00,39.6,27.6,29.99,WSW,255,0.0,0.0,62,0.00,,,0.00,Wunderground v.1.12,2013-02-25 17:15:00,
2013-02-25 12:45:00,40.9,27.2,29.99,WSW,256,0.0,0.0,58,0.00,,,0.00,Wunderground v.1.12,2013-02-25 17:45:00,
2013-02-25 13:15:00,41.3,28.4,30.00,WNW,291,0.0,0.0,60,0.00,,,0.00,Wunderground v.1.12,2013-02-25 18:15:00,
2013-02-25 13:45:00,40.6,27.4,30.00,WNW,301,2.0,2.0,59,0.00,,,0.00,Wunderground v.1.12,2013-02-25 18:45:00,
2013-02-25 14:15:00,41.7,27.6,30.01,WNW,301,0.0,0.0,57,0.00,,,0.00,Wunderground v.1.12,2013-02-25 19:15:00,
2013-02-25 14:45:00,41.8,27.2,30.01,WNW,301,0.0,0.0,56,0.00,,,0.00,Wunderground v.1.12,2013-02-25 19:45:00,
2013-02-25 15:15:00,41.7,27.1,30.01,WNW,301,0.0,0.0,56,0.00,,,0.00,Wunderground v.1.12,2013-02-25 20:15:00,
2013-02-25 15:45:00,39.6,26.8,30.02,WNW,301,0.0,0.0,60,0.00,,,0.00,Wunderground v.1.12,2013-02-25 20:45:00,
2013-02-25 16:15:00,38.4,26.9,30.02,WNW,301,0.0,0.0,63,0.00,,,0.00,Wunderground v.1.12,2013-02-25 21:15:00,
2013-02-25 16:45:00,37.1,26.4,30.03,WNW,301,0.0,0.0,65,0.00,,,0.00,Wunderground v.1.12,2013-02-25 21:45:00,
2013-02-25 17:15:00,36.3,26.0,30.04,WNW,301,0.0,0.0,66,0.00,,,0.00,Wunderground v.1.12,2013-02-25 22:15:00,
2013-02-25 17:45:00,35.1,26.6,30.05,WNW,300,0.0,0.0,71,0.00,,,0.00,Wunderground v.1.12,2013-02-25 22:45:00,
2013-02-25 18:15:00,34.5,27.1,30.06,WNW,300,0.0,0.0,74,0.00,,,0.00,Wunderground v.1.12,2013-02-25 23:15:00,
2013-02-25 18:45:00,34.0,26.9,30.06,WNW,299,0.0,0.0,75,0.00,,,0.00,Wunderground v.1.12,2013-02-25 23:45:00,
2013-02-25 19:15:00,33.5,26.7,30.06,WNW,287,0.0,0.0,76,0.00,,,0.00,Wunderground v.1.12,2013-02-26 00:15:00,
2013-02-25 19:45:00,33.1,26.4,30.07,WNW,287,0.0,0.0,76,0.00,,,0.00,Wunderground v.1.12,2013-02-26 00:45:00,
2013-02-25 20:15:00,33.0,26.6,30.07,WNW,287,0.0,0.0,77,0.00,,,0.00,Wunderground v.1.12,2013-02-26 01:15:00,
2013-02-25 20:45:00,32.6,26.2,30.07,WNW,287,0.0,0.0,77,0.00,,,0.00,Wunderground v.1.12,2013-02-26 01:45:00,
2013-02-25 21:15:00,32.5,26.1,30.07,WNW,287,0.0,0.0,77,0.00,,,0.00,Wunderground v.1.12,2013-02-26 02:15:00,
2013-02-25 21:45:00,32.2,25.8,30.07,WNW,287,0.0,0.0,77,0.00,,,0.00,Wunderground v.1.12,2013-02-26 02:45:00,
2013-02-25 22:15:00,32.1,25.7,30.07,WNW,287,0.0,0.0,77,0.00,,,0.00,Wunderground v.1.12,2013-02-26 03:15:00,
2013-02-25 22:45:00,31.9,25.8,30.07,WNW,287,0.0,0.0,78,0.00,,,0.00,Wunderground v.1.12,2013-02-26 03:45:00,
2013-02-25 23:15:00,31.9,25.8,30.08,WNW,286,0.0,0.0,78,0.00,,,0.00,Wunderground v.1.12,2013-02-26 04:15:00,
2013-02-25 23:45:00,31.7,25.0,30.09,WNW,284,0.0,0.0,76,0.00,,,0.00,Wunderground v.1.12,2013-02-26 04:45:00,